createdAt,value
2024-01-24T00:00:55.742Z,99478.78
2024-01-24T00:03:28.901Z,99490.09
2024-01-24T00:06:01.324Z,99480.16
2024-01-24T00:08:34.265Z,99488.22
2024-01-24T00:11:07.834Z,99491.31
2024-01-24T00:13:41.026Z,99477.97
2024-01-24T00:16:12.953Z,99493.69
2024-01-24T00:18:46.881Z,99459.00
2024-01-24T00:21:19.348Z,99435.66
2024-01-24T00:23:52.292Z,99468.63
2024-01-24T00:26:24.570Z,99487.13
2024-01-24T00:28:57.764Z,99460.50
2024-01-24T00:31:30.075Z,99461.31
2024-01-24T00:34:03.011Z,99455.69
2024-01-24T00:36:35.987Z,99455.50
2024-01-24T00:39:09.276Z,99479.00
2024-01-24T00:41:43.049Z,99469.38
2024-01-24T00:44:16.249Z,99462.34
2024-01-24T00:46:51.556Z,99491.16
2024-01-24T00:49:24.210Z,99473.13
2024-01-24T00:51:57.107Z,99472.63
2024-01-24T00:54:29.451Z,99475.16
2024-01-24T00:57:02.730Z,99482.59
2024-01-24T00:59:34.681Z,99424.91
2024-01-24T01:02:08.070Z,99468.91
2024-01-24T01:04:40.401Z,99473.09
2024-01-24T01:07:13.166Z,99449.31
2024-01-24T01:09:45.139Z,99472.94
2024-01-24T01:12:19.649Z,99479.13
2024-01-24T01:14:52.303Z,99459.69
2024-01-24T01:17:25.255Z,99484.13
2024-01-24T01:19:57.591Z,99463.56
2024-01-24T01:22:29.563Z,99449.44
2024-01-24T01:25:02.876Z,99491.22
2024-01-24T01:27:34.847Z,99425.59
2024-01-24T01:30:08.870Z,99429.91
2024-01-24T01:32:40.913Z,99454.16
2024-01-24T01:35:13.857Z,99441.44
2024-01-24T01:37:46.264Z,99454.44
2024-01-24T01:40:18.967Z,99449.00
2024-01-24T01:42:50.932Z,99441.78
2024-01-24T01:45:24.612Z,99425.69
2024-01-24T01:47:58.933Z,99427.38
2024-01-24T01:50:31.417Z,99426.97
2024-01-24T01:53:05.653Z,99412.16
2024-01-24T01:55:38.671Z,99424.63
2024-01-24T01:58:10.864Z,99392.75
2024-01-24T02:00:47.144Z,99448.91
2024-01-24T02:03:19.332Z,99448.91
2024-01-24T02:05:52.301Z,99414.22
2024-01-24T02:08:24.335Z,99409.94
2024-01-24T02:10:57.539Z,99404.34
2024-01-24T02:13:33.685Z,99405.16
2024-01-24T02:16:06.558Z,99438.13
2024-01-24T02:18:39.425Z,99415.75
2024-01-24T02:21:11.890Z,99412.00
2024-01-24T02:23:44.903Z,99407.16
2024-01-24T02:26:18.114Z,99416.44
2024-01-24T02:28:50.415Z,99425.19
2024-01-24T02:31:23.584Z,99407.47
2024-01-24T02:33:56.174Z,99393.44
2024-01-24T02:36:28.667Z,99415.22
2024-01-24T02:39:02.038Z,99384.13
2024-01-24T02:41:34.828Z,99399.03
2024-01-24T02:44:06.963Z,99391.78
2024-01-24T02:46:39.819Z,99399.03
2024-01-24T02:49:12.215Z,99371.84
2024-01-24T02:51:45.350Z,99389.53
2024-01-24T02:54:17.321Z,99371.84
2024-01-24T02:56:50.169Z,99380.88
2024-01-24T02:59:22.103Z,99394.91
2024-01-24T03:01:54.966Z,99349.75
2024-01-24T03:04:27.956Z,99381.19
2024-01-24T03:09:59.358Z,99387.00
2024-01-24T03:12:31.856Z,99395.53
2024-01-24T03:15:04.786Z,99388.81
2024-01-24T03:17:36.797Z,99387.06
2024-01-24T03:20:12.259Z,99380.09
2024-01-24T03:22:45.064Z,99395.84
2024-01-24T03:25:20.227Z,99405.31
2024-01-24T03:27:52.646Z,99396.13
2024-01-24T03:30:25.492Z,99377.50
2024-01-24T03:32:57.534Z,99402.88
2024-01-24T03:35:30.152Z,99407.84
2024-01-24T03:38:02.173Z,99385.13
2024-01-24T03:40:35.089Z,99401.00
2024-01-24T03:43:07.498Z,99415.44
2024-01-24T03:45:40.522Z,99393.53
2024-01-24T03:48:12.654Z,99403.84
2024-01-24T03:50:45.389Z,99412.06
2024-01-24T03:53:17.325Z,99397.75
2024-01-24T03:55:50.007Z,99380.66
2024-01-24T03:58:22.824Z,99391.09
2024-01-24T04:00:56.958Z,99405.22
2024-01-24T04:03:29.482Z,99436.91
2024-01-24T04:06:02.609Z,99420.59
2024-01-24T04:08:34.606Z,99412.72
2024-01-24T04:11:07.797Z,99432.59
2024-01-24T04:13:44.124Z,99422.00
2024-01-24T04:16:16.826Z,99427.28
2024-01-24T04:18:51.680Z,99438.34
2024-01-24T04:21:25.362Z,99406.59
2024-01-24T04:23:57.306Z,99425.88
2024-01-24T04:26:30.381Z,99451.91
2024-01-24T04:29:03.259Z,99429.78
2024-01-24T04:31:36.322Z,99455.28
2024-01-24T04:34:08.419Z,99475.22
2024-01-24T04:36:41.152Z,99446.19
2024-01-24T04:39:13.852Z,99465.13
2024-01-24T04:41:46.727Z,99427.28
2024-01-24T04:44:18.693Z,99411.16
2024-01-24T04:46:51.336Z,99467.63
2024-01-24T04:49:31.200Z,99454.06
2024-01-24T04:52:12.977Z,99471.69
2024-01-24T04:54:45.403Z,99476.78
2024-01-24T04:57:18.204Z,99481.47
2024-01-24T04:59:55.904Z,99499.97
2024-01-24T05:02:29.509Z,99476.47
2024-01-24T05:05:01.537Z,99466.47
2024-01-24T05:07:37.548Z,99503.50
2024-01-24T05:10:09.999Z,99485.41
2024-01-24T05:12:42.705Z,99482.78
2024-01-24T05:15:14.810Z,99501.94
2024-01-24T05:17:47.572Z,99491.03
2024-01-24T05:20:19.574Z,99523.97
2024-01-24T05:22:52.221Z,99497.19
2024-01-24T05:25:24.216Z,99530.06
2024-01-24T05:27:56.923Z,99521.22
2024-01-24T05:30:35.504Z,99519.06
2024-01-24T05:33:09.438Z,99512.50
2024-01-24T05:35:41.440Z,99496.47
2024-01-24T05:38:14.549Z,99528.19
2024-01-24T05:40:46.908Z,99551.25
2024-01-24T05:43:19.988Z,99538.19
2024-01-24T05:45:52.858Z,99559.97
2024-01-24T05:48:26.103Z,99554.06
2024-01-24T05:50:58.520Z,99556.28
2024-01-24T05:53:31.695Z,99560.97
2024-01-24T05:56:03.858Z,99527.66
2024-01-24T05:58:38.592Z,99524.53
2024-01-24T06:01:11.339Z,99541.81
2024-01-24T06:03:44.635Z,99531.41
2024-01-24T06:06:17.018Z,99520.72
2024-01-24T06:08:50.249Z,99544.16
2024-01-24T06:11:22.230Z,99528.03
2024-01-24T06:13:55.510Z,99516.06
2024-01-24T06:16:27.582Z,99538.13
2024-01-24T06:19:00.487Z,99544.03
2024-01-24T06:21:32.956Z,99527.69
2024-01-24T06:24:08.095Z,99529.41
2024-01-24T06:26:40.170Z,99524.13
2024-01-24T06:29:12.967Z,99509.97
2024-01-24T06:31:46.907Z,99490.47
2024-01-24T06:34:20.231Z,99510.56
2024-01-24T06:36:52.980Z,99526.59
2024-01-24T06:39:25.712Z,99503.00
2024-01-24T06:41:58.029Z,99494.28
2024-01-24T06:44:30.828Z,99481.53
2024-01-24T06:47:02.983Z,99489.03
2024-01-24T06:49:36.056Z,99523.69
2024-01-24T06:52:08.362Z,99493.53
2024-01-24T06:54:41.683Z,99522.91
2024-01-24T06:57:14.168Z,99503.47
2024-01-24T06:59:48.164Z,99523.84
2024-01-24T07:02:20.481Z,99509.06
2024-01-24T07:04:53.498Z,99544.22
2024-01-24T07:07:26.552Z,99528.97
2024-01-24T07:09:59.616Z,99507.81
2024-01-24T07:12:32.292Z,99524.78
2024-01-24T07:15:05.509Z,99490.06
2024-01-24T07:17:37.555Z,99492.88
2024-01-24T07:20:11.312Z,99487.25
2024-01-24T07:22:43.933Z,99495.78
2024-01-24T07:25:21.264Z,99498.16
2024-01-24T07:27:53.355Z,99479.13
2024-01-24T07:30:26.545Z,99513.66
2024-01-24T07:32:58.601Z,99495.00
2024-01-24T07:35:31.255Z,99529.06
2024-01-24T07:38:04.537Z,99538.56
2024-01-24T07:40:38.600Z,99552.75
2024-01-24T07:43:11.113Z,99553.22
2024-01-24T07:45:44.796Z,99559.28
2024-01-24T07:48:17.943Z,99551.97
2024-01-24T07:50:51.069Z,99541.09
2024-01-24T07:53:24.631Z,99537.84
2024-01-24T07:56:03.521Z,99525.84
2024-01-24T07:58:44.033Z,99521.19
2024-01-24T08:01:18.684Z,99522.88
2024-01-24T08:03:52.743Z,99518.50
2024-01-24T08:06:26.564Z,99542.00
2024-01-24T08:08:58.935Z,99504.03
2024-01-24T08:11:31.200Z,99520.84
2024-01-24T08:14:04.098Z,99516.19
2024-01-24T08:16:36.063Z,99555.56
2024-01-24T08:19:09.144Z,99546.53
2024-01-24T08:21:41.598Z,99580.78
2024-01-24T08:24:14.647Z,99537.81
2024-01-24T08:26:48.514Z,99594.94
2024-01-24T08:29:26.060Z,99576.47
2024-01-24T08:32:06.639Z,99578.13
2024-01-24T08:34:40.603Z,99571.44
2024-01-24T08:37:13.956Z,99548.72
2024-01-24T08:39:46.653Z,99542.19
2024-01-24T08:42:18.694Z,99522.41
2024-01-24T08:44:51.423Z,99510.72
2024-01-24T08:47:23.391Z,99497.34
2024-01-24T08:49:58.223Z,99533.53
2024-01-24T08:52:32.144Z,99520.59
2024-01-24T08:55:05.694Z,99515.31
2024-01-24T08:57:37.868Z,99508.47
2024-01-24T09:00:14.368Z,99522.56
2024-01-24T09:02:47.984Z,99509.63
2024-01-24T09:05:22.562Z,99506.59
2024-01-24T09:07:55.494Z,99513.47
2024-01-24T09:10:28.121Z,99505.84
2024-01-24T09:13:00.482Z,99501.78
2024-01-24T09:15:33.486Z,99507.97
2024-01-24T09:18:08.502Z,99536.97
2024-01-24T09:20:41.445Z,99505.97
2024-01-24T09:23:14.374Z,99491.09
2024-01-24T09:25:47.653Z,99508.03
2024-01-24T09:28:19.910Z,99524.97
2024-01-24T09:30:53.046Z,99541.16
2024-01-24T09:33:25.800Z,99545.25
2024-01-24T09:35:59.462Z,99536.13
2024-01-24T09:38:31.922Z,99537.25
2024-01-24T09:41:12.192Z,99536.50
2024-01-24T09:43:44.926Z,99536.91
2024-01-24T09:46:20.818Z,99551.78
2024-01-24T09:48:53.346Z,99567.28
2024-01-24T09:51:26.347Z,99541.03
2024-01-24T09:53:58.991Z,99559.34
2024-01-24T09:56:38.603Z,99569.47
2024-01-24T09:59:11.635Z,99555.78
2024-01-24T10:01:44.713Z,99542.53
2024-01-24T10:04:18.770Z,99568.50
2024-01-24T10:06:52.361Z,99583.09
2024-01-24T10:09:26.425Z,99564.53
2024-01-24T10:11:59.278Z,99551.00
2024-01-24T10:14:31.793Z,99577.94
2024-01-24T10:17:07.556Z,99571.22
2024-01-24T10:19:40.378Z,99572.59
2024-01-24T10:22:13.469Z,99582.47
2024-01-24T10:24:46.091Z,99577.63
2024-01-24T10:27:19.125Z,99603.84
2024-01-24T10:29:51.614Z,99578.53
2024-01-24T10:32:24.394Z,99551.19
2024-01-24T10:34:57.255Z,99573.25
2024-01-24T10:37:29.983Z,99533.66
2024-01-24T10:40:14.961Z,99551.50
2024-01-24T10:42:55.127Z,99546.97
2024-01-24T10:45:31.953Z,99539.66
2024-01-24T10:48:05.878Z,99535.91
2024-01-24T10:50:39.252Z,99506.44
2024-01-24T10:53:15.040Z,99534.84
2024-01-24T10:55:51.243Z,99530.44
2024-01-24T10:58:25.211Z,99555.28
2024-01-24T11:00:57.436Z,99548.00
2024-01-24T11:03:30.352Z,99527.44
2024-01-24T11:06:06.720Z,99517.63
2024-01-24T11:11:46.420Z,99536.38
2024-01-24T11:14:36.300Z,99542.84
2024-01-24T11:17:08.621Z,99612.19
2024-01-24T11:19:42.976Z,99524.88
2024-01-24T11:22:30.097Z,99528.94
2024-01-24T11:25:05.832Z,99554.13
2024-01-24T11:27:39.918Z,99547.13
2024-01-24T11:30:13.897Z,99552.44
2024-01-24T11:32:52.016Z,99551.66
2024-01-24T11:35:39.567Z,99530.38
2024-01-24T11:38:25.845Z,99542.41
2024-01-24T11:41:28.009Z,99517.41
2024-01-24T11:44:01.160Z,99516.19
2024-01-24T11:46:34.411Z,99543.16
2024-01-24T11:49:08.927Z,99535.00
2024-01-24T11:51:41.156Z,99515.75
2024-01-24T11:54:14.191Z,99527.72
2024-01-24T11:56:46.450Z,99517.78
2024-01-24T11:59:22.593Z,99514.31
2024-01-24T12:01:55.076Z,99530.53
2024-01-24T12:04:28.245Z,99512.88
2024-01-24T12:07:02.238Z,99515.00
2024-01-24T12:09:34.934Z,99507.19
2024-01-24T12:12:07.872Z,99532.09
2024-01-24T12:14:42.047Z,99514.66
2024-01-24T12:17:15.428Z,99528.28
2024-01-24T12:19:48.559Z,99503.06
2024-01-24T12:22:21.005Z,99517.38
2024-01-24T12:24:54.149Z,99540.88
2024-01-24T12:27:26.951Z,99524.34
2024-01-24T12:30:00.862Z,99525.78
2024-01-24T12:32:34.282Z,99494.88
2024-01-24T12:35:08.275Z,99508.25
2024-01-24T12:37:42.993Z,99480.56
2024-01-24T12:40:17.394Z,99508.31
2024-01-24T12:42:50.183Z,99509.09
2024-01-24T12:45:26.281Z,99509.34
2024-01-24T12:47:59.515Z,99484.13
2024-01-24T12:50:33.449Z,99508.47
2024-01-24T12:53:06.263Z,99503.78
2024-01-24T12:55:38.333Z,99485.94
2024-01-24T13:01:12.477Z,99499.66
2024-01-24T13:03:47.038Z,99477.41
2024-01-24T13:06:19.948Z,99486.94
2024-01-24T13:08:52.286Z,99468.53
2024-01-24T13:11:25.175Z,99498.59
2024-01-24T13:13:57.739Z,99500.88
2024-01-24T13:16:30.802Z,99517.25
2024-01-24T13:19:03.767Z,99489.50
2024-01-24T13:21:41.538Z,99500.75
2024-01-24T13:24:15.752Z,99492.03
2024-01-24T13:26:52.455Z,99487.81
2024-01-24T13:29:25.205Z,99450.47
2024-01-24T13:31:57.773Z,99474.91
2024-01-24T13:34:30.344Z,99510.28
2024-01-24T13:37:03.290Z,99496.84
2024-01-24T13:39:36.910Z,99467.81
2024-01-24T13:42:09.649Z,99492.03
2024-01-24T13:44:42.191Z,99508.16
2024-01-24T13:47:14.900Z,99490.78
2024-01-24T13:49:47.184Z,99511.94
2024-01-24T13:52:20.073Z,99506.97
2024-01-24T13:54:52.392Z,99489.78
2024-01-24T13:57:24.668Z,99505.28
2024-01-24T13:59:57.828Z,99497.88
2024-01-24T14:02:29.946Z,99507.75
2024-01-24T14:05:03.158Z,99513.47
2024-01-24T14:07:36.094Z,99512.25
2024-01-24T14:10:09.221Z,99493.38
2024-01-24T14:12:42.826Z,99522.13
2024-01-24T14:15:24.819Z,99513.56
2024-01-24T14:18:07.352Z,99522.00
2024-01-24T14:20:39.652Z,99495.78
2024-01-24T14:23:12.710Z,99519.56
2024-01-24T14:25:46.160Z,99499.53
2024-01-24T14:28:18.560Z,99515.41
2024-01-24T14:30:51.126Z,99536.88
2024-01-24T14:33:30.869Z,99521.34
2024-01-24T14:36:07.236Z,99512.41
2024-01-24T14:38:40.692Z,99503.97
2024-01-24T14:41:12.772Z,99527.31
2024-01-24T14:43:45.662Z,99546.16
2024-01-24T14:46:18.044Z,99549.22
2024-01-24T14:48:50.827Z,99578.88
2024-01-24T14:51:24.514Z,99569.22
2024-01-24T14:53:58.097Z,99579.53
2024-01-24T14:56:31.016Z,99545.59
2024-01-24T14:59:03.894Z,99568.19
2024-01-24T15:01:36.263Z,99542.38
2024-01-24T15:04:09.516Z,99574.41
2024-01-24T15:06:42.390Z,99578.63
2024-01-24T15:09:15.122Z,99568.81
2024-01-24T15:11:49.033Z,99582.06
2024-01-24T15:14:21.827Z,99590.00
2024-01-24T15:16:55.836Z,99613.81
2024-01-24T15:19:30.272Z,99614.75
2024-01-24T15:22:02.888Z,99587.94
2024-01-24T15:24:36.414Z,99625.00
2024-01-24T15:27:09.432Z,99643.19
2024-01-24T15:29:42.417Z,99629.69
2024-01-24T15:32:15.365Z,99651.56
2024-01-24T15:34:47.716Z,99632.75
2024-01-24T15:37:20.445Z,99624.16
2024-01-24T15:39:53.116Z,99652.66
2024-01-24T15:42:31.176Z,99640.81
2024-01-24T15:45:04.083Z,99657.19
2024-01-24T15:47:38.103Z,99608.56
2024-01-24T15:50:11.487Z,99625.25
2024-01-24T15:52:44.747Z,99658.88
2024-01-24T15:55:17.640Z,99671.75
2024-01-24T15:57:49.917Z,99636.06
2024-01-24T16:00:23.886Z,99640.59
2024-01-24T16:02:57.200Z,99634.38
2024-01-24T16:05:47.273Z,99651.66
2024-01-24T16:08:22.120Z,99668.63
2024-01-24T16:10:57.036Z,99662.09
2024-01-24T16:13:30.464Z,99667.84
2024-01-24T16:16:03.982Z,99663.97
2024-01-24T16:18:36.726Z,99671.91
2024-01-24T16:21:10.083Z,99659.47
2024-01-24T16:23:42.646Z,99649.19
2024-01-24T16:26:15.659Z,99668.19
2024-01-24T16:28:48.542Z,99671.31
2024-01-24T16:31:20.990Z,99664.13
2024-01-24T16:33:53.720Z,99681.28
2024-01-24T16:36:26.930Z,99670.19
2024-01-24T16:38:59.618Z,99671.91
2024-01-24T16:41:32.892Z,99669.13
2024-01-24T16:44:05.715Z,99674.72
2024-01-24T16:46:38.985Z,99659.19
2024-01-24T16:49:11.533Z,99655.38
2024-01-24T16:51:43.862Z,99644.81
2024-01-24T16:54:17.726Z,99667.28
2024-01-24T16:56:49.924Z,99641.00
2024-01-24T16:59:23.190Z,99639.47
2024-01-24T17:01:55.851Z,99686.19
2024-01-24T17:04:30.330Z,99678.69
2024-01-24T17:07:03.822Z,99701.28
2024-01-24T17:09:36.143Z,99687.53
2024-01-24T17:12:09.679Z,99705.97
2024-01-24T17:14:42.280Z,99711.88
2024-01-24T17:17:15.673Z,99679.56
2024-01-24T17:19:48.261Z,99717.00
2024-01-24T17:22:21.561Z,99709.38
2024-01-24T17:24:53.694Z,99709.88
2024-01-24T17:27:26.266Z,99688.81
2024-01-24T17:29:58.608Z,99671.53
2024-01-24T17:32:30.707Z,99675.50
2024-01-24T17:35:03.431Z,99675.50
2024-01-24T17:37:36.122Z,99705.09
2024-01-24T17:40:10.602Z,99683.84
2024-01-24T17:42:43.200Z,99682.09
2024-01-24T17:45:16.382Z,99696.00
2024-01-24T17:47:49.102Z,99692.13
2024-01-24T17:50:24.049Z,99679.97
2024-01-24T17:52:56.985Z,99708.00
2024-01-24T17:55:29.560Z,99692.38
2024-01-24T17:58:03.447Z,99718.22
2024-01-24T18:00:36.326Z,99712.75
2024-01-24T18:03:08.853Z,99720.72
2024-01-24T18:05:41.706Z,99695.78
2024-01-24T18:08:14.285Z,99716.69
2024-01-24T18:10:46.915Z,99696.41
2024-01-24T18:13:19.255Z,99715.69
2024-01-24T18:15:51.454Z,99710.69
2024-01-24T18:18:25.427Z,99727.97
2024-01-24T18:20:58.184Z,99730.47
2024-01-24T18:23:31.732Z,99724.03
2024-01-24T18:26:03.830Z,99699.44
2024-01-24T18:28:36.437Z,99715.00
2024-01-24T18:31:10.004Z,99718.69
2024-01-24T18:33:42.929Z,99710.13
2024-01-24T18:36:15.717Z,99746.47
2024-01-24T18:38:48.439Z,99741.06
2024-01-24T18:41:23.129Z,99745.81
2024-01-24T18:43:56.223Z,99751.97
2024-01-24T18:46:29.802Z,99742.91
2024-01-24T18:49:04.665Z,99755.56
2024-01-24T18:51:37.791Z,99750.69
2024-01-24T18:54:15.118Z,99732.56
2024-01-24T18:56:48.421Z,99751.91
2024-01-24T18:59:21.006Z,99757.53
2024-01-24T19:01:53.843Z,99737.72
2024-01-24T19:04:26.916Z,99755.47
2024-01-24T19:06:59.167Z,99739.56
2024-01-24T19:09:33.464Z,99731.78
2024-01-24T19:12:09.355Z,99739.72
2024-01-24T19:14:43.851Z,99731.31
2024-01-24T19:17:16.578Z,99734.09
2024-01-24T19:19:50.160Z,99748.91
2024-01-24T19:22:23.633Z,99747.88
2024-01-24T19:24:56.990Z,99745.19
2024-01-24T19:27:29.564Z,99757.97
2024-01-24T19:30:03.217Z,99753.19
2024-01-24T19:32:36.434Z,99740.63
2024-01-24T19:35:09.020Z,99741.41
2024-01-24T19:37:41.381Z,99756.41
2024-01-24T19:40:14.331Z,99742.19
2024-01-24T19:42:48.113Z,99767.28
2024-01-24T19:45:20.689Z,99742.31
2024-01-24T19:47:53.217Z,99750.13
2024-01-24T19:50:25.730Z,99750.88
2024-01-24T19:53:00.785Z,99755.03
2024-01-24T19:55:33.795Z,99741.00
2024-01-24T19:58:05.909Z,99746.00
2024-01-24T20:00:38.997Z,99741.41
2024-01-24T20:03:11.448Z,99728.59
2024-01-24T20:05:44.592Z,99758.22
2024-01-24T20:08:18.090Z,99748.72
2024-01-24T20:10:51.601Z,99751.22
2024-01-24T20:13:24.538Z,99721.34
2024-01-24T20:15:58.971Z,99744.66
2024-01-24T20:18:31.562Z,99722.94
2024-01-24T20:21:05.170Z,99714.16
2024-01-24T20:23:38.218Z,99755.47
2024-01-24T20:26:12.098Z,99746.41
2024-01-24T20:28:45.076Z,99750.28
2024-01-24T20:31:17.926Z,99740.03
2024-01-24T20:33:50.769Z,99736.38
2024-01-24T20:36:25.204Z,99740.69
2024-01-24T20:38:57.856Z,99748.28
2024-01-24T20:41:30.886Z,99746.41
2024-01-24T20:44:04.034Z,99756.97
2024-01-24T20:46:37.961Z,99718.06
2024-01-24T20:49:11.093Z,99764.00
2024-01-24T20:51:43.899Z,99734.78
2024-01-24T20:54:17.014Z,99731.97
2024-01-24T20:56:49.021Z,99738.41
2024-01-24T20:59:22.299Z,99746.31
2024-01-24T21:01:56.549Z,99754.16
2024-01-24T21:04:29.454Z,99760.91
2024-01-24T21:07:02.386Z,99750.63
2024-01-24T21:09:35.251Z,99760.63
2024-01-24T21:12:08.992Z,99758.25
2024-01-24T21:14:42.201Z,99758.44
2024-01-24T21:17:14.303Z,99755.81
2024-01-24T21:19:47.249Z,99751.91
2024-01-24T21:22:19.856Z,99753.09
2024-01-24T21:24:52.074Z,99741.19
2024-01-24T21:27:24.903Z,99767.19
2024-01-24T21:29:57.358Z,99763.28
2024-01-24T21:32:29.731Z,99750.47
2024-01-24T21:35:03.680Z,99759.16
2024-01-24T21:37:36.248Z,99757.09
2024-01-24T21:40:09.575Z,99759.44
2024-01-24T21:42:42.574Z,99758.50
2024-01-24T21:45:15.057Z,99757.81
2024-01-24T21:47:47.216Z,99753.59
2024-01-24T21:50:20.053Z,99756.00
2024-01-24T21:52:52.045Z,99758.38
2024-01-24T21:55:24.412Z,99755.94
2024-01-24T21:57:56.765Z,99761.22
2024-01-24T22:00:29.626Z,99755.56
2024-01-24T22:03:02.270Z,99747.94
2024-01-24T22:05:34.870Z,99738.88
2024-01-24T22:08:08.074Z,99744.72
2024-01-24T22:10:40.760Z,99750.78
2024-01-24T22:13:13.304Z,99757.25
2024-01-24T22:15:46.742Z,99760.75
2024-01-24T22:18:22.561Z,99750.19
2024-01-24T22:20:58.161Z,99751.56
2024-01-24T22:23:31.207Z,99752.13
2024-01-24T22:26:04.451Z,99755.66
2024-01-24T22:28:36.370Z,99739.63
2024-01-24T22:31:09.291Z,99741.59
2024-01-24T22:33:41.934Z,99734.34
2024-01-24T22:36:14.423Z,99729.00
2024-01-24T22:38:49.184Z,99727.34
2024-01-24T22:41:22.058Z,99719.56
2024-01-24T22:43:56.228Z,99717.59
2024-01-24T22:46:29.423Z,99712.13
2024-01-24T22:49:03.203Z,99709.59
2024-01-24T22:51:36.586Z,99720.38
2024-01-24T22:54:09.942Z,99707.53
2024-01-24T22:56:42.772Z,99722.25
2024-01-24T22:59:15.461Z,99721.13
2024-01-24T23:01:49.286Z,99717.97
2024-01-24T23:04:22.077Z,99718.78
2024-01-24T23:06:54.492Z,99714.28
2024-01-24T23:09:27.947Z,99717.78
2024-01-24T23:12:00.393Z,99727.47
2024-01-24T23:14:32.840Z,99726.41
2024-01-24T23:17:05.310Z,99717.31
2024-01-24T23:19:37.932Z,99714.56
2024-01-24T23:22:10.415Z,99716.19
2024-01-24T23:24:43.677Z,99727.97
2024-01-24T23:27:15.749Z,99718.91
2024-01-24T23:29:48.558Z,99721.94
2024-01-24T23:32:22.256Z,99725.50
2024-01-24T23:34:54.859Z,99709.94
2024-01-24T23:37:27.451Z,99724.31
2024-01-24T23:39:59.916Z,99735.47
2024-01-24T23:42:32.802Z,99733.13
2024-01-24T23:45:06.665Z,99728.03
2024-01-24T23:47:38.688Z,99727.09
2024-01-24T23:50:11.757Z,99729.13
2024-01-24T23:52:43.961Z,99718.94
2024-01-24T23:55:16.987Z,99714.09
2024-01-24T23:57:49.036Z,99723.22
